sensor_id;sensor_type;location;lat;lon;timestamp;pressure;altitude;pressure_sealevel;temperature;humidity
6851;BME280;3464;42.728;23.296;2022-07-31T00:00:54;95078.75;;;28.95;73.00
6851;BME280;3464;42.728;23.296;2022-07-31T00:03:43;95086.48;;;29.15;73.94
6851;BME280;3464;42.728;23.296;2022-07-31T00:06:33;95088.03;;;29.05;73.63
6851;BME280;3464;42.728;23.296;2022-07-31T00:09:22;95085.89;;;29.56;71.59
6851;BME280;3464;42.728;23.296;2022-07-31T00:12:12;95082.05;;;28.04;79.61
6851;BME280;3464;42.728;23.296;2022-07-31T00:15:02;95083.09;;;28.35;80.18
6851;BME280;3464;42.728;23.296;2022-07-31T00:17:51;95084.61;;;27.91;80.43
6851;BME280;3464;42.728;23.296;2022-07-31T00:20:41;95086.08;;;28.49;77.65
6851;BME280;3464;42.728;23.296;2022-07-31T00:23:30;95098.48;;;27.76;79.70
6851;BME280;3464;42.728;23.296;2022-07-31T00:26:20;95103.09;;;28.06;80.98
6851;BME280;3464;42.728;23.296;2022-07-31T00:29:09;95103.30;;;28.36;80.00
6851;BME280;3464;42.728;23.296;2022-07-31T00:31:59;95094.55;;;29.55;76.51
6851;BME280;3464;42.728;23.296;2022-07-31T00:34:48;95109.86;;;29.08;73.04
6851;BME280;3464;42.728;23.296;2022-07-31T00:37:38;95104.41;;;28.60;76.14
6851;BME280;3464;42.728;23.296;2022-07-31T00:40:28;95099.80;;;28.10;79.23
6851;BME280;3464;42.728;23.296;2022-07-31T00:43:17;95099.74;;;28.58;77.06
6851;BME280;3464;42.728;23.296;2022-07-31T00:46:07;95094.27;;;28.76;76.26
6851;BME280;3464;42.728;23.296;2022-07-31T00:48:56;95095.78;;;28.79;75.22
6851;BME280;3464;42.728;23.296;2022-07-31T00:51:48;95103.17;;;28.59;75.91
6851;BME280;3464;42.728;23.296;2022-07-31T00:54:38;95103.84;;;28.14;79.06
6851;BME280;3464;42.728;23.296;2022-07-31T00:57:27;95101.49;;;28.65;77.72
6851;BME280;3464;42.728;23.296;2022-07-31T01:00:17;95100.63;;;28.91;76.04
6851;BME280;3464;42.728;23.296;2022-07-31T01:03:06;95105.31;;;28.46;76.76
6851;BME280;3464;42.728;23.296;2022-07-31T01:05:56;95104.56;;;29.04;74.02
6851;BME280;3464;42.728;23.296;2022-07-31T01:08:45;95118.30;;;29.31;71.37
6851;BME280;3464;42.728;23.296;2022-07-31T01:11:48;95131.88;;;27.65;78.61
6851;BME280;3464;42.728;23.296;2022-07-31T01:14:40;95126.38;;;27.57;85.60
6851;BME280;3464;42.728;23.296;2022-07-31T01:17:29;95108.73;;;28.19;80.23
6851;BME280;3464;42.728;23.296;2022-07-31T01:20:17;95108.59;;;29.27;74.89
6851;BME280;3464;42.728;23.296;2022-07-31T01:23:16;95104.27;;;28.75;73.89
6851;BME280;3464;42.728;23.296;2022-07-31T01:26:13;95103.72;;;28.37;75.39
6851;BME280;3464;42.728;23.296;2022-07-31T01:32:07;95115.81;;;27.96;79.09
6851;BME280;3464;42.728;23.296;2022-07-31T01:34:59;95126.83;;;27.20;81.94
6851;BME280;3464;42.728;23.296;2022-07-31T01:37:49;95120.05;;;28.11;78.56
6851;BME280;3464;42.728;23.296;2022-07-31T01:40:41;95115.69;;;27.98;78.44
6851;BME280;3464;42.728;23.296;2022-07-31T01:43:32;95114.00;;;27.76;78.11
6851;BME280;3464;42.728;23.296;2022-07-31T01:46:21;95109.50;;;28.34;75.59
6851;BME280;3464;42.728;23.296;2022-07-31T01:49:10;95111.31;;;27.42;81.71
6851;BME280;3464;42.728;23.296;2022-07-31T01:52:00;95112.16;;;27.20;81.28
6851;BME280;3464;42.728;23.296;2022-07-31T01:54:49;95104.05;;;27.76;78.24
6851;BME280;3464;42.728;23.296;2022-07-31T01:57:39;95103.55;;;27.49;81.64
6851;BME280;3464;42.728;23.296;2022-07-31T02:00:28;95111.31;;;26.37;88.02
6851;BME280;3464;42.728;23.296;2022-07-31T02:03:17;95120.42;;;26.67;86.28
6851;BME280;3464;42.728;23.296;2022-07-31T02:06:07;95123.29;;;26.69;86.24
6851;BME280;3464;42.728;23.296;2022-07-31T02:08:56;95121.61;;;26.60;85.00
6851;BME280;3464;42.728;23.296;2022-07-31T02:11:46;95114.06;;;26.42;87.71
6851;BME280;3464;42.728;23.296;2022-07-31T02:14:36;95114.47;;;26.73;83.39
6851;BME280;3464;42.728;23.296;2022-07-31T02:17:25;95115.94;;;26.62;83.79
6851;BME280;3464;42.728;23.296;2022-07-31T02:20:15;95116.36;;;26.39;85.34
6851;BME280;3464;42.728;23.296;2022-07-31T02:23:04;95116.39;;;26.46;84.23
6851;BME280;3464;42.728;23.296;2022-07-31T02:25:54;95126.98;;;26.80;80.56
6851;BME280;3464;42.728;23.296;2022-07-31T02:28:44;95120.75;;;26.30;83.04
6851;BME280;3464;42.728;23.296;2022-07-31T02:31:34;95125.81;;;26.54;83.28
6851;BME280;3464;42.728;23.296;2022-07-31T02:34:23;95121.66;;;25.32;90.09
6851;BME280;3464;42.728;23.296;2022-07-31T02:37:13;95124.63;;;25.66;87.61
6851;BME280;3464;42.728;23.296;2022-07-31T02:40:03;95122.14;;;26.36;83.86
6851;BME280;3464;42.728;23.296;2022-07-31T02:42:52;95130.25;;;26.52;83.94
6851;BME280;3464;42.728;23.296;2022-07-31T02:45:42;95132.52;;;26.58;84.46
6851;BME280;3464;42.728;23.296;2022-07-31T02:48:31;95130.19;;;25.24;89.77
6851;BME280;3464;42.728;23.296;2022-07-31T02:51:21;95131.28;;;25.70;89.28
6851;BME280;3464;42.728;23.296;2022-07-31T02:54:10;95126.70;;;26.08;86.26
6851;BME280;3464;42.728;23.296;2022-07-31T02:57:00;95131.56;;;26.29;84.75
6851;BME280;3464;42.728;23.296;2022-07-31T02:59:50;95126.35;;;26.14;84.54
6851;BME280;3464;42.728;23.296;2022-07-31T03:02:39;95129.31;;;25.59;87.57
6851;BME280;3464;42.728;23.296;2022-07-31T03:05:29;95131.22;;;25.47;89.08
6851;BME280;3464;42.728;23.296;2022-07-31T03:08:18;95132.78;;;25.16;90.01
6851;BME280;3464;42.728;23.296;2022-07-31T03:11:08;95137.82;;;25.27;91.40
6851;BME280;3464;42.728;23.296;2022-07-31T03:13:57;95139.95;;;24.57;94.56
6851;BME280;3464;42.728;23.296;2022-07-31T03:16:47;95142.41;;;24.77;94.21
6851;BME280;3464;42.728;23.296;2022-07-31T03:19:37;95140.52;;;24.54;96.04
6851;BME280;3464;42.728;23.296;2022-07-31T03:22:26;95143.41;;;24.83;94.73
6851;BME280;3464;42.728;23.296;2022-07-31T03:25:15;95143.16;;;25.06;93.30
6851;BME280;3464;42.728;23.296;2022-07-31T03:28:05;95139.94;;;25.10;94.06
6851;BME280;3464;42.728;23.296;2022-07-31T03:30:55;95148.88;;;24.50;95.72
6851;BME280;3464;42.728;23.296;2022-07-31T03:33:44;95143.59;;;24.53;97.39
6851;BME280;3464;42.728;23.296;2022-07-31T03:36:33;95134.29;;;25.11;93.08
6851;BME280;3464;42.728;23.296;2022-07-31T03:39:23;95146.15;;;24.80;96.36
6851;BME280;3464;42.728;23.296;2022-07-31T03:42:13;95142.93;;;25.19;94.72
6851;BME280;3464;42.728;23.296;2022-07-31T03:45:03;95147.36;;;24.73;98.02
6851;BME280;3464;42.728;23.296;2022-07-31T03:47:51;95150.98;;;24.86;96.13
6851;BME280;3464;42.728;23.296;2022-07-31T03:50:42;95150.98;;;25.12;95.79
6851;BME280;3464;42.728;23.296;2022-07-31T03:53:32;95153.52;;;25.39;94.10
6851;BME280;3464;42.728;23.296;2022-07-31T03:56:21;95150.94;;;26.13;89.69
6851;BME280;3464;42.728;23.296;2022-07-31T03:59:11;95147.75;;;25.75;88.22
6851;BME280;3464;42.728;23.296;2022-07-31T04:02:00;95150.50;;;25.47;90.91
6851;BME280;3464;42.728;23.296;2022-07-31T04:04:50;95152.05;;;26.09;87.62
6851;BME280;3464;42.728;23.296;2022-07-31T04:07:40;95159.05;;;26.60;82.94
6851;BME280;3464;42.728;23.296;2022-07-31T04:10:29;95158.34;;;26.11;86.55
6851;BME280;3464;42.728;23.296;2022-07-31T04:13:19;95160.73;;;26.54;83.76
6851;BME280;3464;42.728;23.296;2022-07-31T04:16:08;95159.38;;;26.93;82.33
6851;BME280;3464;42.728;23.296;2022-07-31T04:18:58;95155.02;;;26.01;86.68
6851;BME280;3464;42.728;23.296;2022-07-31T04:21:47;95153.59;;;26.50;86.15
6851;BME280;3464;42.728;23.296;2022-07-31T04:24:37;95162.31;;;27.02;83.15
6851;BME280;3464;42.728;23.296;2022-07-31T04:27:26;95161.00;;;26.95;80.64
6851;BME280;3464;42.728;23.296;2022-07-31T04:30:16;95146.09;;;27.37;79.77
6851;BME280;3464;42.728;23.296;2022-07-31T04:33:05;95137.98;;;30.58;67.51
6851;BME280;3464;42.728;23.296;2022-07-31T04:35:55;95144.62;;;30.86;63.96
6851;BME280;3464;42.728;23.296;2022-07-31T04:38:44;95142.47;;;29.37;65.52
6851;BME280;3464;42.728;23.296;2022-07-31T04:41:34;95140.67;;;29.32;67.02
6851;BME280;3464;42.728;23.296;2022-07-31T04:44:23;95151.34;;;28.14;71.48
6851;BME280;3464;42.728;23.296;2022-07-31T04:47:13;95147.12;;;27.77;73.71
6851;BME280;3464;42.728;23.296;2022-07-31T04:50:03;95148.04;;;27.17;78.38
6851;BME280;3464;42.728;23.296;2022-07-31T04:52:52;95140.95;;;28.06;73.22
6851;BME280;3464;42.728;23.296;2022-07-31T04:55:42;95149.08;;;28.02;73.89
6851;BME280;3464;42.728;23.296;2022-07-31T04:58:36;95154.72;;;27.07;77.57
6851;BME280;3464;42.728;23.296;2022-07-31T05:01:25;95158.41;;;27.32;77.43
6851;BME280;3464;42.728;23.296;2022-07-31T05:04:15;95160.67;;;27.88;75.13
6851;BME280;3464;42.728;23.296;2022-07-31T05:07:05;95160.30;;;28.22;74.12
6851;BME280;3464;42.728;23.296;2022-07-31T05:09:55;95158.67;;;28.21;74.58
6851;BME280;3464;42.728;23.296;2022-07-31T05:12:44;95158.48;;;28.24;72.83
6851;BME280;3464;42.728;23.296;2022-07-31T05:15:33;95156.34;;;28.23;74.43
6851;BME280;3464;42.728;23.296;2022-07-31T05:18:23;95155.28;;;28.40;73.12
6851;BME280;3464;42.728;23.296;2022-07-31T05:21:13;95152.10;;;28.90;69.94
6851;BME280;3464;42.728;23.296;2022-07-31T05:24:02;95152.81;;;28.38;70.47
6851;BME280;3464;42.728;23.296;2022-07-31T05:26:51;95148.30;;;29.79;66.89
6851;BME280;3464;42.728;23.296;2022-07-31T05:29:41;95158.20;;;29.99;65.08
6851;BME280;3464;42.728;23.296;2022-07-31T05:32:31;95149.58;;;29.67;63.93
6851;BME280;3464;42.728;23.296;2022-07-31T05:35:21;95157.08;;;29.65;63.47
6851;BME280;3464;42.728;23.296;2022-07-31T05:38:11;95161.11;;;28.71;66.73
6851;BME280;3464;42.728;23.296;2022-07-31T05:41:00;95157.56;;;28.32;66.42
6851;BME280;3464;42.728;23.296;2022-07-31T05:43:50;95154.89;;;28.87;64.83
6851;BME280;3464;42.728;23.296;2022-07-31T05:46:39;95154.50;;;30.69;60.02
6851;BME280;3464;42.728;23.296;2022-07-31T05:49:29;95148.69;;;32.48;55.04
6851;BME280;3464;42.728;23.296;2022-07-31T05:52:19;95151.73;;;32.92;52.13
6851;BME280;3464;42.728;23.296;2022-07-31T05:55:08;95158.48;;;31.79;55.74
6851;BME280;3464;42.728;23.296;2022-07-31T05:57:58;95159.84;;;30.49;57.61
6851;BME280;3464;42.728;23.296;2022-07-31T06:00:48;95159.16;;;30.09;59.88
6851;BME280;3464;42.728;23.296;2022-07-31T06:03:37;95163.56;;;29.45;62.38
6851;BME280;3464;42.728;23.296;2022-07-31T06:06:27;95164.81;;;28.33;63.87
6851;BME280;3464;42.728;23.296;2022-07-31T06:09:16;95166.14;;;28.53;65.38
6851;BME280;3464;42.728;23.296;2022-07-31T06:12:06;95166.80;;;30.66;62.08
6851;BME280;3464;42.728;23.296;2022-07-31T06:14:55;95154.77;;;32.38;53.69
6851;BME280;3464;42.728;23.296;2022-07-31T06:17:45;95157.05;;;32.79;52.05
6851;BME280;3464;42.728;23.296;2022-07-31T06:20:35;95160.27;;;32.45;53.19
6851;BME280;3464;42.728;23.296;2022-07-31T06:23:24;95160.63;;;29.95;57.22
6851;BME280;3464;42.728;23.296;2022-07-31T06:26:14;95162.88;;;30.06;58.14
6851;BME280;3464;42.728;23.296;2022-07-31T06:29:04;95165.37;;;30.01;57.04
6851;BME280;3464;42.728;23.296;2022-07-31T06:31:53;95162.20;;;28.67;61.34
6851;BME280;3464;42.728;23.296;2022-07-31T06:34:43;95160.91;;;28.80;61.06
6851;BME280;3464;42.728;23.296;2022-07-31T06:37:32;95156.70;;;28.99;61.96
6851;BME280;3464;42.728;23.296;2022-07-31T06:40:21;95157.59;;;28.52;63.16
6851;BME280;3464;42.728;23.296;2022-07-31T06:43:11;95154.42;;;29.52;60.54
6851;BME280;3464;42.728;23.296;2022-07-31T06:46:01;95160.05;;;30.46;57.76
6851;BME280;3464;42.728;23.296;2022-07-31T06:48:50;95147.88;;;33.59;50.71
6851;BME280;3464;42.728;23.296;2022-07-31T06:51:40;95153.56;;;33.58;48.92
6851;BME280;3464;42.728;23.296;2022-07-31T06:54:29;95149.66;;;32.74;50.55
6851;BME280;3464;42.728;23.296;2022-07-31T06:57:19;95159.09;;;31.59;52.51
6851;BME280;3464;42.728;23.296;2022-07-31T07:00:08;95157.84;;;31.36;52.46
6851;BME280;3464;42.728;23.296;2022-07-31T07:02:58;95153.98;;;32.47;50.54
6851;BME280;3464;42.728;23.296;2022-07-31T07:05:47;95152.63;;;33.85;47.88
6851;BME280;3464;42.728;23.296;2022-07-31T07:08:37;95156.28;;;34.93;45.84
6851;BME280;3464;42.728;23.296;2022-07-31T07:11:26;95169.78;;;33.10;47.21
6851;BME280;3464;42.728;23.296;2022-07-31T07:14:16;95166.24;;;32.95;48.91
6851;BME280;3464;42.728;23.296;2022-07-31T07:17:06;95172.81;;;35.17;44.16
6851;BME280;3464;42.728;23.296;2022-07-31T07:19:55;95167.91;;;34.05;47.72
6851;BME280;3464;42.728;23.296;2022-07-31T07:22:45;95172.27;;;32.96;49.07
6851;BME280;3464;42.728;23.296;2022-07-31T07:25:34;95162.37;;;33.99;45.93
6851;BME280;3464;42.728;23.296;2022-07-31T07:28:24;95173.79;;;31.71;51.21
6851;BME280;3464;42.728;23.296;2022-07-31T07:31:13;95159.74;;;34.24;46.74
6851;BME280;3464;42.728;23.296;2022-07-31T07:34:03;95161.03;;;36.62;42.15
6851;BME280;3464;42.728;23.296;2022-07-31T07:36:52;95159.53;;;34.06;46.91
6851;BME280;3464;42.728;23.296;2022-07-31T07:39:42;95164.52;;;32.57;49.32
6851;BME280;3464;42.728;23.296;2022-07-31T07:42:32;95166.59;;;31.80;51.31
6851;BME280;3464;42.728;23.296;2022-07-31T07:45:21;95167.80;;;31.42;51.52
6851;BME280;3464;42.728;23.296;2022-07-31T07:48:11;95148.73;;;33.12;50.05
6851;BME280;3464;42.728;23.296;2022-07-31T07:51:00;95147.66;;;35.11;46.48
6851;BME280;3464;42.728;23.296;2022-07-31T07:53:50;95157.34;;;32.81;49.68
6851;BME280;3464;42.728;23.296;2022-07-31T07:56:40;95160.23;;;31.78;52.21
6851;BME280;3464;42.728;23.296;2022-07-31T07:59:29;95156.53;;;33.18;50.00
6851;BME280;3464;42.728;23.296;2022-07-31T08:02:20;95150.40;;;33.80;48.70
6851;BME280;3464;42.728;23.296;2022-07-31T08:05:09;95153.98;;;32.85;49.50
6851;BME280;3464;42.728;23.296;2022-07-31T08:07:59;95158.63;;;34.56;47.38
6851;BME280;3464;42.728;23.296;2022-07-31T08:10:48;95162.16;;;31.36;51.84
6851;BME280;3464;42.728;23.296;2022-07-31T08:13:42;95163.22;;;37.07;40.09
6851;BME280;3464;42.728;23.296;2022-07-31T08:16:32;95163.47;;;34.66;43.31
6851;BME280;3464;42.728;23.296;2022-07-31T08:19:22;95170.09;;;35.38;43.94
6851;BME280;3464;42.728;23.296;2022-07-31T08:22:12;95178.00;;;35.85;44.08
6851;BME280;3464;42.728;23.296;2022-07-31T08:25:01;95173.44;;;36.15;43.38
6851;BME280;3464;42.728;23.296;2022-07-31T08:27:51;95164.41;;;36.36;42.62
6851;BME280;3464;42.728;23.296;2022-07-31T08:30:40;95177.44;;;33.12;48.58
6851;BME280;3464;42.728;23.296;2022-07-31T08:33:31;95166.02;;;33.40;47.94
6851;BME280;3464;42.728;23.296;2022-07-31T08:36:21;95166.53;;;33.13;47.48
6851;BME280;3464;42.728;23.296;2022-07-31T08:39:10;95164.06;;;34.84;45.25
6851;BME280;3464;42.728;23.296;2022-07-31T08:42:03;95177.48;;;34.25;45.34
6851;BME280;3464;42.728;23.296;2022-07-31T08:44:52;95163.55;;;33.49;47.15
6851;BME280;3464;42.728;23.296;2022-07-31T08:47:44;95161.34;;;33.80;47.89
6851;BME280;3464;42.728;23.296;2022-07-31T08:50:31;95169.36;;;32.12;48.64
6851;BME280;3464;42.728;23.296;2022-07-31T08:53:20;95161.16;;;34.18;46.11
6851;BME280;3464;42.728;23.296;2022-07-31T08:56:10;95167.98;;;33.21;45.91
6851;BME280;3464;42.728;23.296;2022-07-31T08:59:00;95162.23;;;33.69;46.91
6851;BME280;3464;42.728;23.296;2022-07-31T09:01:49;95162.98;;;32.70;48.29
6851;BME280;3464;42.728;23.296;2022-07-31T09:04:38;95153.75;;;33.14;47.93
6851;BME280;3464;42.728;23.296;2022-07-31T09:07:28;95165.12;;;33.03;48.30
6851;BME280;3464;42.728;23.296;2022-07-31T09:10:25;95164.06;;;33.16;48.02
6851;BME280;3464;42.728;23.296;2022-07-31T09:13:19;95162.78;;;33.68;46.51
6851;BME280;3464;42.728;23.296;2022-07-31T09:16:09;95167.59;;;32.29;50.00
6851;BME280;3464;42.728;23.296;2022-07-31T09:19:09;95165.06;;;33.62;48.26
6851;BME280;3464;42.728;23.296;2022-07-31T09:21:59;95168.09;;;33.36;48.89
6851;BME280;3464;42.728;23.296;2022-07-31T09:24:49;95164.14;;;33.67;46.46
6851;BME280;3464;42.728;23.296;2022-07-31T09:27:39;95168.31;;;32.96;48.05
6851;BME280;3464;42.728;23.296;2022-07-31T09:30:28;95171.95;;;32.35;49.32
6851;BME280;3464;42.728;23.296;2022-07-31T09:33:20;95164.91;;;33.01;50.01
6851;BME280;3464;42.728;23.296;2022-07-31T09:36:10;95154.87;;;33.79;45.76
6851;BME280;3464;42.728;23.296;2022-07-31T09:38:59;95154.82;;;33.39;46.03
6851;BME280;3464;42.728;23.296;2022-07-31T09:41:49;95152.91;;;34.52;42.93
6851;BME280;3464;42.728;23.296;2022-07-31T09:44:43;95148.06;;;31.73;47.79
6851;BME280;3464;42.728;23.296;2022-07-31T09:47:33;95147.42;;;33.44;45.89
6851;BME280;3464;42.728;23.296;2022-07-31T09:50:22;95144.34;;;33.02;46.30
6851;BME280;3464;42.728;23.296;2022-07-31T09:53:11;95139.11;;;33.75;45.60
6851;BME280;3464;42.728;23.296;2022-07-31T09:56:01;95147.59;;;32.46;47.74
6851;BME280;3464;42.728;23.296;2022-07-31T09:58:50;95139.38;;;33.93;44.79
6851;BME280;3464;42.728;23.296;2022-07-31T10:01:40;95150.94;;;32.96;46.53
6851;BME280;3464;42.728;23.296;2022-07-31T10:04:31;95144.70;;;34.76;43.01
6851;BME280;3464;42.728;23.296;2022-07-31T10:07:22;95144.88;;;32.74;44.40
6851;BME280;3464;42.728;23.296;2022-07-31T10:10:13;95138.41;;;32.25;44.59
6851;BME280;3464;42.728;23.296;2022-07-31T10:13:05;95129.44;;;33.19;44.32
6851;BME280;3464;42.728;23.296;2022-07-31T10:15:56;95130.94;;;33.99;43.39
6851;BME280;3464;42.728;23.296;2022-07-31T10:18:46;95123.84;;;34.06;42.80
6851;BME280;3464;42.728;23.296;2022-07-31T10:21:49;95131.66;;;31.95;45.49
6851;BME280;3464;42.728;23.296;2022-07-31T10:24:42;95125.08;;;33.35;43.96
6851;BME280;3464;42.728;23.296;2022-07-31T10:27:25;95120.12;;;32.85;42.87
6851;BME280;3464;42.728;23.296;2022-07-31T10:30:16;95123.36;;;31.21;45.30
6851;BME280;3464;42.728;23.296;2022-07-31T10:33:07;95110.17;;;31.97;44.61
6851;BME280;3464;42.728;23.296;2022-07-31T10:36:08;95108.06;;;32.57;43.42
6851;BME280;3464;42.728;23.296;2022-07-31T10:39:05;95097.91;;;33.27;42.83
6851;BME280;3464;42.728;23.296;2022-07-31T10:41:59;95097.00;;;32.97;43.21
6851;BME280;3464;42.728;23.296;2022-07-31T10:44:49;95098.98;;;32.02;45.44
6851;BME280;3464;42.728;23.296;2022-07-31T10:47:36;95095.17;;;31.33;45.61
6851;BME280;3464;42.728;23.296;2022-07-31T10:50:28;95088.45;;;32.79;44.03
6851;BME280;3464;42.728;23.296;2022-07-31T10:53:17;95079.09;;;32.17;43.95
6851;BME280;3464;42.728;23.296;2022-07-31T10:56:07;95087.30;;;32.45;42.43
6851;BME280;3464;42.728;23.296;2022-07-31T10:58:57;95076.62;;;31.99;44.00
6851;BME280;3464;42.728;23.296;2022-07-31T11:01:51;95084.85;;;32.54;42.93
6851;BME280;3464;42.728;23.296;2022-07-31T11:04:41;95082.02;;;31.80;44.13
6851;BME280;3464;42.728;23.296;2022-07-31T11:07:31;95083.49;;;32.06;44.53
6851;BME280;3464;42.728;23.296;2022-07-31T11:10:22;95075.13;;;31.23;45.50
6851;BME280;3464;42.728;23.296;2022-07-31T11:13:12;95072.22;;;32.22;43.70
6851;BME280;3464;42.728;23.296;2022-07-31T11:16:07;95088.09;;;31.52;42.90
6851;BME280;3464;42.728;23.296;2022-07-31T11:19:17;95083.84;;;32.50;41.02
6851;BME280;3464;42.728;23.296;2022-07-31T11:22:09;95074.62;;;32.83;41.37
6851;BME280;3464;42.728;23.296;2022-07-31T11:25:00;95072.20;;;31.89;42.82
6851;BME280;3464;42.728;23.296;2022-07-31T11:27:50;95071.47;;;32.47;42.71
6851;BME280;3464;42.728;23.296;2022-07-31T11:33:40;95064.38;;;32.38;42.59
6851;BME280;3464;42.728;23.296;2022-07-31T11:36:30;95056.75;;;32.30;41.94
6851;BME280;3464;42.728;23.296;2022-07-31T11:39:20;95062.05;;;32.19;43.24
6851;BME280;3464;42.728;23.296;2022-07-31T11:42:10;95057.78;;;32.55;43.23
6851;BME280;3464;42.728;23.296;2022-07-31T11:45:02;95065.19;;;31.28;43.87
6851;BME280;3464;42.728;23.296;2022-07-31T11:47:51;95056.92;;;31.90;43.74
6851;BME280;3464;42.728;23.296;2022-07-31T11:50:51;95049.12;;;31.85;43.70
6851;BME280;3464;42.728;23.296;2022-07-31T11:53:41;95049.22;;;31.89;42.48
6851;BME280;3464;42.728;23.296;2022-07-31T11:56:30;95063.77;;;32.29;40.85
6851;BME280;3464;42.728;23.296;2022-07-31T12:02:16;95039.50;;;32.93;40.48
6851;BME280;3464;42.728;23.296;2022-07-31T12:05:06;95031.52;;;32.89;40.02
6851;BME280;3464;42.728;23.296;2022-07-31T12:07:55;95034.59;;;33.15;40.67
6851;BME280;3464;42.728;23.296;2022-07-31T12:10:45;95039.03;;;32.02;41.23
6851;BME280;3464;42.728;23.296;2022-07-31T12:13:34;95035.61;;;31.96;41.45
6851;BME280;3464;42.728;23.296;2022-07-31T12:16:23;95045.52;;;31.69;42.21
6851;BME280;3464;42.728;23.296;2022-07-31T12:19:13;95040.08;;;31.39;42.23
6851;BME280;3464;42.728;23.296;2022-07-31T12:24:59;95026.23;;;32.43;41.04
6851;BME280;3464;42.728;23.296;2022-07-31T12:27:52;95013.93;;;33.07;40.96
6851;BME280;3464;42.728;23.296;2022-07-31T12:30:41;95021.11;;;32.68;39.88
6851;BME280;3464;42.728;23.296;2022-07-31T12:36:25;95012.64;;;32.39;41.37
6851;BME280;3464;42.728;23.296;2022-07-31T12:39:17;95014.09;;;32.48;40.44
6851;BME280;3464;42.728;23.296;2022-07-31T12:42:06;95002.53;;;32.46;39.77
6851;BME280;3464;42.728;23.296;2022-07-31T12:44:58;95005.36;;;32.06;41.30
6851;BME280;3464;42.728;23.296;2022-07-31T12:47:48;94999.80;;;33.55;39.81
6851;BME280;3464;42.728;23.296;2022-07-31T12:50:38;94998.50;;;32.84;40.29
6851;BME280;3464;42.728;23.296;2022-07-31T12:53:27;94997.39;;;31.97;42.23
6851;BME280;3464;42.728;23.296;2022-07-31T12:56:19;94995.00;;;33.05;41.02
6851;BME280;3464;42.728;23.296;2022-07-31T12:59:09;94990.72;;;34.00;39.25
6851;BME280;3464;42.728;23.296;2022-07-31T13:01:59;94988.95;;;33.66;40.98
6851;BME280;3464;42.728;23.296;2022-07-31T13:04:49;94977.94;;;32.75;41.25
6851;BME280;3464;42.728;23.296;2022-07-31T13:07:38;94983.56;;;32.39;41.87
6851;BME280;3464;42.728;23.296;2022-07-31T13:13:26;94977.45;;;33.12;41.07
6851;BME280;3464;42.728;23.296;2022-07-31T13:16:15;94981.04;;;32.75;39.85
6851;BME280;3464;42.728;23.296;2022-07-31T13:19:08;94984.78;;;32.87;38.75
6851;BME280;3464;42.728;23.296;2022-07-31T13:22:01;94982.68;;;32.91;38.60
6851;BME280;3464;42.728;23.296;2022-07-31T13:24:52;94976.05;;;32.08;38.82
6851;BME280;3464;42.728;23.296;2022-07-31T13:27:41;94984.97;;;31.89;39.26
6851;BME280;3464;42.728;23.296;2022-07-31T13:30:31;94984.42;;;33.17;37.98
6851;BME280;3464;42.728;23.296;2022-07-31T13:33:20;94988.16;;;31.65;40.04
6851;BME280;3464;42.728;23.296;2022-07-31T13:36:10;94986.67;;;33.06;38.87
6851;BME280;3464;42.728;23.296;2022-07-31T13:39:03;94979.55;;;33.53;38.54
6851;BME280;3464;42.728;23.296;2022-07-31T13:41:53;94973.43;;;32.41;40.34
6851;BME280;3464;42.728;23.296;2022-07-31T13:44:46;94971.66;;;33.34;38.98
6851;BME280;3464;42.728;23.296;2022-07-31T13:47:35;94969.02;;;32.67;40.75
6851;BME280;3464;42.728;23.296;2022-07-31T13:50:25;94969.02;;;32.73;40.05
6851;BME280;3464;42.728;23.296;2022-07-31T13:53:14;94973.05;;;32.71;39.90
6851;BME280;3464;42.728;23.296;2022-07-31T13:56:05;94972.19;;;32.08;41.44
6851;BME280;3464;42.728;23.296;2022-07-31T13:58:54;94969.11;;;32.40;40.34
6851;BME280;3464;42.728;23.296;2022-07-31T14:01:49;94973.74;;;32.47;39.33
6851;BME280;3464;42.728;23.296;2022-07-31T14:04:39;94964.88;;;31.02;41.74
6851;BME280;3464;42.728;23.296;2022-07-31T14:07:29;94971.88;;;31.68;40.67
6851;BME280;3464;42.728;23.296;2022-07-31T14:13:17;94964.32;;;32.03;40.65
6851;BME280;3464;42.728;23.296;2022-07-31T14:16:08;94965.73;;;32.34;39.12
6851;BME280;3464;42.728;23.296;2022-07-31T14:18:57;94965.95;;;32.15;38.41
6851;BME280;3464;42.728;23.296;2022-07-31T14:21:50;94967.88;;;31.58;40.17
6851;BME280;3464;42.728;23.296;2022-07-31T14:24:40;94967.02;;;31.69;41.19
6851;BME280;3464;42.728;23.296;2022-07-31T14:27:29;94965.44;;;32.32;40.64
6851;BME280;3464;42.728;23.296;2022-07-31T14:30:20;94962.96;;;33.24;39.80
6851;BME280;3464;42.728;23.296;2022-07-31T14:33:09;94963.76;;;32.68;39.61
6851;BME280;3464;42.728;23.296;2022-07-31T14:35:59;94970.50;;;33.22;39.12
6851;BME280;3464;42.728;23.296;2022-07-31T14:38:48;94962.25;;;33.17;38.53
6851;BME280;3464;42.728;23.296;2022-07-31T14:41:39;94961.77;;;33.02;38.63
6851;BME280;3464;42.728;23.296;2022-07-31T14:44:29;94968.30;;;32.34;38.62
6851;BME280;3464;42.728;23.296;2022-07-31T14:47:21;94969.27;;;32.17;39.57
6851;BME280;3464;42.728;23.296;2022-07-31T14:50:10;94969.56;;;31.20;40.44
6851;BME280;3464;42.728;23.296;2022-07-31T14:53:01;94958.88;;;33.20;37.66
6851;BME280;3464;42.728;23.296;2022-07-31T14:55:50;94965.12;;;34.28;35.56
6851;BME280;3464;42.728;23.296;2022-07-31T14:58:41;94953.88;;;32.67;38.22
6851;BME280;3464;42.728;23.296;2022-07-31T15:01:30;94957.45;;;33.22;38.10
6851;BME280;3464;42.728;23.296;2022-07-31T15:04:23;94961.30;;;32.51;37.79
6851;BME280;3464;42.728;23.296;2022-07-31T15:07:12;94955.95;;;33.09;37.51
6851;BME280;3464;42.728;23.296;2022-07-31T15:10:03;94961.77;;;32.97;37.33
6851;BME280;3464;42.728;23.296;2022-07-31T15:12:52;94959.81;;;32.37;38.18
6851;BME280;3464;42.728;23.296;2022-07-31T15:15:42;94954.37;;;31.92;39.54
6851;BME280;3464;42.728;23.296;2022-07-31T15:18:32;94950.26;;;32.69;37.11
6851;BME280;3464;42.728;23.296;2022-07-31T15:21:22;94946.83;;;32.31;38.20
6851;BME280;3464;42.728;23.296;2022-07-31T15:24:12;94937.03;;;31.48;39.15
6851;BME280;3464;42.728;23.296;2022-07-31T15:27:02;94944.51;;;31.58;39.56
6851;BME280;3464;42.728;23.296;2022-07-31T15:29:54;94940.48;;;33.07;37.59
6851;BME280;3464;42.728;23.296;2022-07-31T15:32:46;94932.98;;;32.62;38.47